sensor_id;sensor_type;location;lat;lon;timestamp;P1;durP1;ratioP1;P2;durP2;ratioP2
74577;SDS011;63173;49.086;33.418;2023-01-01T00:01:26;47.50;;;21.40;;
74577;SDS011;63173;49.086;33.418;2023-01-01T00:03:53;49.28;;;22.08;;
74577;SDS011;63173;49.086;33.418;2023-01-01T00:06:19;36.95;;;16.23;;
74577;SDS011;63173;49.086;33.418;2023-01-01T00:08:45;48.50;;;20.65;;
74577;SDS011;63173;49.086;33.418;2023-01-01T00:11:12;47.45;;;20.65;;
74577;SDS011;63173;49.086;33.418;2023-01-01T00:13:39;45.13;;;21.42;;
74577;SDS011;63173;49.086;33.418;2023-01-01T00:18:32;40.03;;;17.73;;
74577;SDS011;63173;49.086;33.418;2023-01-01T00:21:05;43.67;;;21.00;;
74577;SDS011;63173;49.086;33.418;2023-01-01T00:23:32;42.85;;;20.45;;
74577;SDS011;63173;49.086;33.418;2023-01-01T00:25:58;42.35;;;19.33;;
74577;SDS011;63173;49.086;33.418;2023-01-01T00:28:23;45.30;;;20.58;;
74577;SDS011;63173;49.086;33.418;2023-01-01T00:30:49;44.20;;;18.73;;
74577;SDS011;63173;49.086;33.418;2023-01-01T00:33:14;47.92;;;20.88;;
74577;SDS011;63173;49.086;33.418;2023-01-01T00:35:40;46.70;;;21.88;;
74577;SDS011;63173;49.086;33.418;2023-01-01T00:38:05;46.50;;;18.67;;
74577;SDS011;63173;49.086;33.418;2023-01-01T00:40:31;44.53;;;18.50;;
74577;SDS011;63173;49.086;33.418;2023-01-01T00:42:56;45.70;;;21.55;;
74577;SDS011;63173;49.086;33.418;2023-01-01T00:45:22;49.20;;;21.63;;
74577;SDS011;63173;49.086;33.418;2023-01-01T00:47:48;48.40;;;20.80;;
74577;SDS011;63173;49.086;33.418;2023-01-01T00:50:15;53.38;;;21.25;;
74577;SDS011;63173;49.086;33.418;2023-01-01T00:52:40;53.25;;;21.08;;
74577;SDS011;63173;49.086;33.418;2023-01-01T00:55:06;49.17;;;21.75;;
74577;SDS011;63173;49.086;33.418;2023-01-01T00:57:32;45.45;;;20.17;;
74577;SDS011;63173;49.086;33.418;2023-01-01T00:59:57;36.00;;;15.73;;
74577;SDS011;63173;49.086;33.418;2023-01-01T01:02:22;49.50;;;21.88;;
74577;SDS011;63173;49.086;33.418;2023-01-01T01:04:48;44.38;;;19.63;;
74577;SDS011;63173;49.086;33.418;2023-01-01T01:07:13;45.95;;;19.48;;
74577;SDS011;63173;49.086;33.418;2023-01-01T01:09:39;33.35;;;15.70;;
74577;SDS011;63173;49.086;33.418;2023-01-01T01:12:04;39.40;;;17.88;;
74577;SDS011;63173;49.086;33.418;2023-01-01T01:14:30;48.40;;;20.13;;
74577;SDS011;63173;49.086;33.418;2023-01-01T01:16:55;42.40;;;18.73;;
74577;SDS011;63173;49.086;33.418;2023-01-01T01:19:21;45.38;;;19.85;;
74577;SDS011;63173;49.086;33.418;2023-01-01T01:21:48;67.68;;;28.10;;
74577;SDS011;63173;49.086;33.418;2023-01-01T01:24:15;71.40;;;33.05;;
74577;SDS011;63173;49.086;33.418;2023-01-01T01:26:40;52.50;;;24.73;;
74577;SDS011;63173;49.086;33.418;2023-01-01T01:29:06;43.80;;;21.17;;
74577;SDS011;63173;49.086;33.418;2023-01-01T01:31:32;40.38;;;18.15;;
74577;SDS011;63173;49.086;33.418;2023-01-01T01:33:58;42.10;;;19.15;;
74577;SDS011;63173;49.086;33.418;2023-01-01T01:36:25;44.42;;;18.08;;
74577;SDS011;63173;49.086;33.418;2023-01-01T01:38:50;47.20;;;19.27;;
74577;SDS011;63173;49.086;33.418;2023-01-01T01:41:17;43.60;;;19.67;;
74577;SDS011;63173;49.086;33.418;2023-01-01T01:48:58;44.40;;;19.27;;
74577;SDS011;63173;49.086;33.418;2023-01-01T01:51:35;43.20;;;19.58;;
74577;SDS011;63173;49.086;33.418;2023-01-01T01:54:06;47.20;;;22.55;;
74577;SDS011;63173;49.086;33.418;2023-01-01T01:56:42;44.45;;;19.25;;
74577;SDS011;63173;49.086;33.418;2023-01-01T01:59:12;41.83;;;17.88;;
74577;SDS011;63173;49.086;33.418;2023-01-01T02:01:39;46.22;;;19.92;;
74577;SDS011;63173;49.086;33.418;2023-01-01T02:04:06;42.35;;;18.83;;
74577;SDS011;63173;49.086;33.418;2023-01-01T02:06:31;43.92;;;21.13;;
74577;SDS011;63173;49.086;33.418;2023-01-01T02:09:00;35.00;;;16.00;;
74577;SDS011;63173;49.086;33.418;2023-01-01T02:13:53;39.25;;;18.38;;
74577;SDS011;63173;49.086;33.418;2023-01-01T02:19:04;45.95;;;20.02;;
74577;SDS011;63173;49.086;33.418;2023-01-01T02:21:51;42.75;;;19.35;;
74577;SDS011;63173;49.086;33.418;2023-01-01T02:32:49;45.13;;;19.27;;
74577;SDS011;63173;49.086;33.418;2023-01-01T02:35:35;45.60;;;20.98;;
74577;SDS011;63173;49.086;33.418;2023-01-01T02:38:10;49.22;;;23.52;;
74577;SDS011;63173;49.086;33.418;2023-01-01T02:40:43;49.75;;;21.75;;
74577;SDS011;63173;49.086;33.418;2023-01-01T02:43:12;47.10;;;20.40;;
74577;SDS011;63173;49.086;33.418;2023-01-01T02:45:38;39.20;;;17.60;;
74577;SDS011;63173;49.086;33.418;2023-01-01T02:48:50;48.17;;;19.63;;
74577;SDS011;63173;49.086;33.418;2023-01-01T02:51:08;44.60;;;20.77;;
74577;SDS011;63173;49.086;33.418;2023-01-01T03:00:47;57.00;;;21.38;;
74577;SDS011;63173;49.086;33.418;2023-01-01T03:03:24;40.78;;;14.82;;
74577;SDS011;63173;49.086;33.418;2023-01-01T03:11:43;49.13;;;21.02;;
74577;SDS011;63173;49.086;33.418;2023-01-01T03:17:36;48.72;;;23.83;;
74577;SDS011;63173;49.086;33.418;2023-01-01T03:20:07;52.88;;;22.98;;
74577;SDS011;63173;49.086;33.418;2023-01-01T03:22:38;55.17;;;22.67;;
74577;SDS011;63173;49.086;33.418;2023-01-01T03:27:36;48.67;;;21.38;;
74577;SDS011;63173;49.086;33.418;2023-01-01T03:30:07;49.10;;;21.88;;
74577;SDS011;63173;49.086;33.418;2023-01-01T03:35:50;45.30;;;20.58;;
74577;SDS011;63173;49.086;33.418;2023-01-01T03:38:29;55.60;;;23.73;;
74577;SDS011;63173;49.086;33.418;2023-01-01T03:41:01;48.45;;;23.70;;
74577;SDS011;63173;49.086;33.418;2023-01-01T03:46:25;51.50;;;22.98;;
74577;SDS011;63173;49.086;33.418;2023-01-01T03:48:54;47.20;;;22.08;;
74577;SDS011;63173;49.086;33.418;2023-01-01T03:51:22;45.92;;;21.92;;
74577;SDS011;63173;49.086;33.418;2023-01-01T03:53:52;30.65;;;13.23;;
74577;SDS011;63173;49.086;33.418;2023-01-01T03:59:00;47.35;;;21.00;;
74577;SDS011;63173;49.086;33.418;2023-01-01T04:01:32;52.13;;;20.70;;
74577;SDS011;63173;49.086;33.418;2023-01-01T04:04:03;44.15;;;19.13;;
74577;SDS011;63173;49.086;33.418;2023-01-01T04:06:33;39.92;;;18.55;;
74577;SDS011;63173;49.086;33.418;2023-01-01T04:11:27;38.78;;;17.23;;
74577;SDS011;63173;49.086;33.418;2023-01-01T04:16:50;46.90;;;19.25;;
74577;SDS011;63173;49.086;33.418;2023-01-01T04:19:15;41.00;;;18.95;;
74577;SDS011;63173;49.086;33.418;2023-01-01T04:21:40;44.70;;;18.38;;
74577;SDS011;63173;49.086;33.418;2023-01-01T04:24:06;43.22;;;19.13;;
74577;SDS011;63173;49.086;33.418;2023-01-01T04:26:31;42.35;;;19.55;;
74577;SDS011;63173;49.086;33.418;2023-01-01T04:28:57;44.88;;;20.67;;
74577;SDS011;63173;49.086;33.418;2023-01-01T04:31:22;43.75;;;19.35;;
74577;SDS011;63173;49.086;33.418;2023-01-01T04:33:47;39.28;;;19.42;;
74577;SDS011;63173;49.086;33.418;2023-01-01T04:36:17;43.50;;;19.45;;
74577;SDS011;63173;49.086;33.418;2023-01-01T04:38:43;37.35;;;16.67;;
74577;SDS011;63173;49.086;33.418;2023-01-01T04:41:08;41.88;;;19.48;;
74577;SDS011;63173;49.086;33.418;2023-01-01T04:43:34;47.05;;;19.98;;
74577;SDS011;63173;49.086;33.418;2023-01-01T04:46:00;37.72;;;18.02;;
74577;SDS011;63173;49.086;33.418;2023-01-01T04:48:27;43.58;;;19.20;;
74577;SDS011;63173;49.086;33.418;2023-01-01T04:50:58;42.13;;;21.02;;
74577;SDS011;63173;49.086;33.418;2023-01-01T04:53:27;42.70;;;19.58;;
74577;SDS011;63173;49.086;33.418;2023-01-01T04:55:54;34.50;;;17.67;;
74577;SDS011;63173;49.086;33.418;2023-01-01T04:58:19;38.90;;;18.42;;
74577;SDS011;63173;49.086;33.418;2023-01-01T05:00:49;44.00;;;19.90;;
74577;SDS011;63173;49.086;33.418;2023-01-01T05:03:15;39.30;;;18.67;;
74577;SDS011;63173;49.086;33.418;2023-01-01T05:05:41;39.17;;;18.42;;
74577;SDS011;63173;49.086;33.418;2023-01-01T05:08:06;42.05;;;18.00;;
74577;SDS011;63173;49.086;33.418;2023-01-01T05:10:32;37.90;;;16.75;;
74577;SDS011;63173;49.086;33.418;2023-01-01T05:12:57;36.70;;;17.30;;
74577;SDS011;63173;49.086;33.418;2023-01-01T05:15:22;37.10;;;16.83;;
74577;SDS011;63173;49.086;33.418;2023-01-01T05:17:48;37.22;;;16.85;;
74577;SDS011;63173;49.086;33.418;2023-01-01T05:20:13;41.00;;;18.63;;
74577;SDS011;63173;49.086;33.418;2023-01-01T05:22:39;36.00;;;17.70;;
74577;SDS011;63173;49.086;33.418;2023-01-01T05:25:04;39.80;;;18.08;;
74577;SDS011;63173;49.086;33.418;2023-01-01T05:27:30;39.35;;;17.23;;
74577;SDS011;63173;49.086;33.418;2023-01-01T05:29:55;39.80;;;18.50;;
74577;SDS011;63173;49.086;33.418;2023-01-01T05:32:21;40.05;;;17.83;;
74577;SDS011;63173;49.086;33.418;2023-01-01T05:34:46;43.25;;;18.42;;
74577;SDS011;63173;49.086;33.418;2023-01-01T05:37:12;54.65;;;23.77;;
74577;SDS011;63173;49.086;33.418;2023-01-01T05:39:37;32.83;;;15.98;;
74577;SDS011;63173;49.086;33.418;2023-01-01T05:42:03;36.92;;;14.32;;
74577;SDS011;63173;49.086;33.418;2023-01-01T05:44:28;41.40;;;19.13;;
74577;SDS011;63173;49.086;33.418;2023-01-01T05:46:53;40.03;;;19.42;;
74577;SDS011;63173;49.086;33.418;2023-01-01T05:49:19;35.72;;;15.95;;
74577;SDS011;63173;49.086;33.418;2023-01-01T05:51:44;36.60;;;17.48;;
74577;SDS011;63173;49.086;33.418;2023-01-01T05:54:10;36.25;;;17.23;;
74577;SDS011;63173;49.086;33.418;2023-01-01T05:56:35;30.48;;;14.73;;
74577;SDS011;63173;49.086;33.418;2023-01-01T05:59:00;42.33;;;17.58;;
74577;SDS011;63173;49.086;33.418;2023-01-01T06:01:27;39.80;;;17.10;;
74577;SDS011;63173;49.086;33.418;2023-01-01T06:03:54;43.72;;;19.23;;
74577;SDS011;63173;49.086;33.418;2023-01-01T06:06:21;42.25;;;19.23;;
74577;SDS011;63173;49.086;33.418;2023-01-01T06:08:50;39.10;;;16.50;;
74577;SDS011;63173;49.086;33.418;2023-01-01T06:11:17;38.95;;;18.08;;
74577;SDS011;63173;49.086;33.418;2023-01-01T06:13:43;44.65;;;19.73;;
74577;SDS011;63173;49.086;33.418;2023-01-01T06:16:08;43.97;;;19.20;;
74577;SDS011;63173;49.086;33.418;2023-01-01T06:18:34;45.97;;;18.58;;
74577;SDS011;63173;49.086;33.418;2023-01-01T06:21:07;38.85;;;18.08;;
74577;SDS011;63173;49.086;33.418;2023-01-01T06:23:33;43.50;;;18.20;;
74577;SDS011;63173;49.086;33.418;2023-01-01T06:26:09;33.60;;;15.05;;
74577;SDS011;63173;49.086;33.418;2023-01-01T06:28:34;35.63;;;17.33;;
74577;SDS011;63173;49.086;33.418;2023-01-01T06:31:01;37.67;;;18.92;;
74577;SDS011;63173;49.086;33.418;2023-01-01T06:33:28;36.30;;;18.13;;
74577;SDS011;63173;49.086;33.418;2023-01-01T06:35:54;45.72;;;21.00;;
74577;SDS011;63173;49.086;33.418;2023-01-01T06:38:20;47.05;;;21.90;;
74577;SDS011;63173;49.086;33.418;2023-01-01T06:40:55;36.13;;;17.35;;
74577;SDS011;63173;49.086;33.418;2023-01-01T06:43:21;35.30;;;16.75;;
74577;SDS011;63173;49.086;33.418;2023-01-01T06:45:46;37.30;;;16.63;;
74577;SDS011;63173;49.086;33.418;2023-01-01T06:48:12;36.90;;;17.77;;
74577;SDS011;63173;49.086;33.418;2023-01-01T06:50:37;36.03;;;16.25;;
74577;SDS011;63173;49.086;33.418;2023-01-01T06:53:02;32.55;;;15.43;;
74577;SDS011;63173;49.086;33.418;2023-01-01T06:55:28;39.47;;;17.63;;
74577;SDS011;63173;49.086;33.418;2023-01-01T06:57:53;33.33;;;15.73;;
74577;SDS011;63173;49.086;33.418;2023-01-01T07:00:19;34.15;;;17.50;;
74577;SDS011;63173;49.086;33.418;2023-01-01T07:02:46;35.75;;;17.50;;
74577;SDS011;63173;49.086;33.418;2023-01-01T07:05:12;31.02;;;15.48;;
74577;SDS011;63173;49.086;33.418;2023-01-01T07:07:37;36.90;;;18.98;;
74577;SDS011;63173;49.086;33.418;2023-01-01T07:10:03;44.38;;;19.30;;
74577;SDS011;63173;49.086;33.418;2023-01-01T07:12:29;43.00;;;19.73;;
74577;SDS011;63173;49.086;33.418;2023-01-01T07:14:54;38.72;;;18.13;;
74577;SDS011;63173;49.086;33.418;2023-01-01T07:17:20;32.78;;;17.45;;
74577;SDS011;63173;49.086;33.418;2023-01-01T07:19:45;35.13;;;15.55;;
74577;SDS011;63173;49.086;33.418;2023-01-01T07:22:10;31.00;;;15.25;;
74577;SDS011;63173;49.086;33.418;2023-01-01T07:24:36;34.72;;;14.77;;
74577;SDS011;63173;49.086;33.418;2023-01-01T07:27:03;30.25;;;14.65;;
74577;SDS011;63173;49.086;33.418;2023-01-01T07:29:29;28.42;;;13.13;;
74577;SDS011;63173;49.086;33.418;2023-01-01T07:31:54;38.00;;;15.57;;
74577;SDS011;63173;49.086;33.418;2023-01-01T07:34:19;27.13;;;12.55;;
74577;SDS011;63173;49.086;33.418;2023-01-01T07:36:46;32.75;;;15.13;;
74577;SDS011;63173;49.086;33.418;2023-01-01T07:39:12;30.02;;;15.43;;
74577;SDS011;63173;49.086;33.418;2023-01-01T07:41:37;31.70;;;15.43;;
74577;SDS011;63173;49.086;33.418;2023-01-01T07:44:03;36.50;;;15.65;;
74577;SDS011;63173;49.086;33.418;2023-01-01T07:46:29;38.35;;;15.85;;
74577;SDS011;63173;49.086;33.418;2023-01-01T07:48:54;41.63;;;18.25;;
74577;SDS011;63173;49.086;33.418;2023-01-01T07:51:20;41.00;;;17.50;;
74577;SDS011;63173;49.086;33.418;2023-01-01T07:53:46;48.30;;;17.35;;
74577;SDS011;63173;49.086;33.418;2023-01-01T07:56:11;32.42;;;15.57;;
74577;SDS011;63173;49.086;33.418;2023-01-01T07:58:40;32.45;;;14.85;;
74577;SDS011;63173;49.086;33.418;2023-01-01T08:01:08;45.20;;;16.25;;
74577;SDS011;63173;49.086;33.418;2023-01-01T08:03:35;36.78;;;15.85;;
74577;SDS011;63173;49.086;33.418;2023-01-01T08:06:04;29.52;;;14.30;;
74577;SDS011;63173;49.086;33.418;2023-01-01T08:08:32;28.95;;;13.32;;
74577;SDS011;63173;49.086;33.418;2023-01-01T08:11:01;28.50;;;13.60;;
74577;SDS011;63173;49.086;33.418;2023-01-01T08:13:26;27.42;;;14.07;;
74577;SDS011;63173;49.086;33.418;2023-01-01T08:15:52;31.67;;;14.43;;
74577;SDS011;63173;49.086;33.418;2023-01-01T08:18:19;27.20;;;14.10;;
74577;SDS011;63173;49.086;33.418;2023-01-01T08:20:45;29.45;;;14.07;;
74577;SDS011;63173;49.086;33.418;2023-01-01T08:23:10;31.35;;;15.27;;
74577;SDS011;63173;49.086;33.418;2023-01-01T08:25:36;26.92;;;13.68;;
74577;SDS011;63173;49.086;33.418;2023-01-01T08:28:01;27.20;;;13.02;;
74577;SDS011;63173;49.086;33.418;2023-01-01T08:30:26;23.52;;;12.30;;
74577;SDS011;63173;49.086;33.418;2023-01-01T08:32:52;25.58;;;12.60;;
74577;SDS011;63173;49.086;33.418;2023-01-01T08:35:17;37.50;;;15.65;;
74577;SDS011;63173;49.086;33.418;2023-01-01T08:37:43;33.75;;;15.07;;
74577;SDS011;63173;49.086;33.418;2023-01-01T08:40:09;36.50;;;16.42;;
74577;SDS011;63173;49.086;33.418;2023-01-01T08:42:37;29.48;;;13.57;;
74577;SDS011;63173;49.086;33.418;2023-01-01T08:45:03;35.88;;;15.40;;
74577;SDS011;63173;49.086;33.418;2023-01-01T08:47:29;31.25;;;13.65;;
74577;SDS011;63173;49.086;33.418;2023-01-01T08:49:57;28.60;;;14.07;;
74577;SDS011;63173;49.086;33.418;2023-01-01T08:52:23;31.13;;;13.77;;
74577;SDS011;63173;49.086;33.418;2023-01-01T08:54:48;26.42;;;13.43;;
74577;SDS011;63173;49.086;33.418;2023-01-01T08:57:13;30.98;;;13.27;;
74577;SDS011;63173;49.086;33.418;2023-01-01T08:59:39;27.73;;;14.23;;
74577;SDS011;63173;49.086;33.418;2023-01-01T09:02:05;26.70;;;13.05;;
74577;SDS011;63173;49.086;33.418;2023-01-01T09:04:31;32.70;;;15.70;;
74577;SDS011;63173;49.086;33.418;2023-01-01T09:06:56;32.15;;;15.25;;
74577;SDS011;63173;49.086;33.418;2023-01-01T09:09:21;28.17;;;15.13;;
74577;SDS011;63173;49.086;33.418;2023-01-01T09:11:51;28.85;;;14.50;;
74577;SDS011;63173;49.086;33.418;2023-01-01T09:14:18;31.00;;;15.32;;
74577;SDS011;63173;49.086;33.418;2023-01-01T09:16:44;31.92;;;14.57;;
74577;SDS011;63173;49.086;33.418;2023-01-01T09:19:09;30.73;;;15.00;;
74577;SDS011;63173;49.086;33.418;2023-01-01T09:21:34;26.42;;;12.40;;
74577;SDS011;63173;49.086;33.418;2023-01-01T09:24:00;32.83;;;13.82;;
74577;SDS011;63173;49.086;33.418;2023-01-01T09:26:25;28.75;;;14.48;;
74577;SDS011;63173;49.086;33.418;2023-01-01T09:28:52;27.95;;;14.32;;
74577;SDS011;63173;49.086;33.418;2023-01-01T09:31:17;25.75;;;12.70;;
74577;SDS011;63173;49.086;33.418;2023-01-01T09:33:43;26.52;;;14.02;;
74577;SDS011;63173;49.086;33.418;2023-01-01T09:36:13;28.35;;;14.18;;
74577;SDS011;63173;49.086;33.418;2023-01-01T09:38:48;31.15;;;14.23;;
74577;SDS011;63173;49.086;33.418;2023-01-01T09:46:22;24.60;;;12.73;;
74577;SDS011;63173;49.086;33.418;2023-01-01T09:49:33;30.35;;;14.90;;
74577;SDS011;63173;49.086;33.418;2023-01-01T09:51:45;26.23;;;12.95;;
74577;SDS011;63173;49.086;33.418;2023-01-01T09:54:24;26.45;;;13.00;;
74577;SDS011;63173;49.086;33.418;2023-01-01T09:57:01;23.45;;;13.20;;
74577;SDS011;63173;49.086;33.418;2023-01-01T09:59:30;27.80;;;14.60;;
74577;SDS011;63173;49.086;33.418;2023-01-01T10:01:58;27.48;;;12.82;;
74577;SDS011;63173;49.086;33.418;2023-01-01T10:07:27;22.30;;;11.40;;
74577;SDS011;63173;49.086;33.418;2023-01-01T10:12:55;22.20;;;11.57;;
74577;SDS011;63173;49.086;33.418;2023-01-01T10:15:25;25.75;;;13.38;;
74577;SDS011;63173;49.086;33.418;2023-01-01T10:17:59;23.90;;;13.45;;
74577;SDS011;63173;49.086;33.418;2023-01-01T10:20:31;24.45;;;12.38;;
74577;SDS011;63173;49.086;33.418;2023-01-01T10:23:02;25.92;;;12.90;;
74577;SDS011;63173;49.086;33.418;2023-01-01T10:25:52;26.92;;;13.98;;
74577;SDS011;63173;49.086;33.418;2023-01-01T10:31:27;21.83;;;11.15;;
74577;SDS011;63173;49.086;33.418;2023-01-01T10:34:00;23.08;;;12.43;;
74577;SDS011;63173;49.086;33.418;2023-01-01T10:36:36;25.17;;;11.65;;
74577;SDS011;63173;49.086;33.418;2023-01-01T10:39:01;27.15;;;12.73;;
74577;SDS011;63173;49.086;33.418;2023-01-01T10:41:27;25.35;;;13.05;;
74577;SDS011;63173;49.086;33.418;2023-01-01T10:43:52;36.08;;;14.07;;
74577;SDS011;63173;49.086;33.418;2023-01-01T10:46:19;28.75;;;12.88;;
74577;SDS011;63173;49.086;33.418;2023-01-01T10:49:05;38.28;;;14.10;;
74577;SDS011;63173;49.086;33.418;2023-01-01T10:51:50;32.08;;;13.57;;
74577;SDS011;63173;49.086;33.418;2023-01-01T10:54:39;25.85;;;12.18;;
74577;SDS011;63173;49.086;33.418;2023-01-01T10:57:21;29.42;;;14.10;;
74577;SDS011;63173;49.086;33.418;2023-01-01T11:00:11;25.23;;;11.88;;
74577;SDS011;63173;49.086;33.418;2023-01-01T11:02:36;24.63;;;11.30;;
74577;SDS011;63173;49.086;33.418;2023-01-01T11:07:57;20.00;;;10.68;;
74577;SDS011;63173;49.086;33.418;2023-01-01T11:10:23;17.45;;;8.38;;
74577;SDS011;63173;49.086;33.418;2023-01-01T11:12:55;21.08;;;11.00;;
74577;SDS011;63173;49.086;33.418;2023-01-01T11:18:20;20.98;;;10.13;;
74577;SDS011;63173;49.086;33.418;2023-01-01T11:20:52;21.52;;;11.20;;
74577;SDS011;63173;49.086;33.418;2023-01-01T11:28:32;21.75;;;12.32;;
74577;SDS011;63173;49.086;33.418;2023-01-01T11:31:03;19.05;;;10.20;;
74577;SDS011;63173;49.086;33.418;2023-01-01T11:33:45;18.85;;;11.25;;
74577;SDS011;63173;49.086;33.418;2023-01-01T11:38:49;26.33;;;14.57;;
74577;SDS011;63173;49.086;33.418;2023-01-01T11:41:18;23.80;;;13.38;;
74577;SDS011;63173;49.086;33.418;2023-01-01T11:43:44;18.92;;;11.30;;
74577;SDS011;63173;49.086;33.418;2023-01-01T11:46:13;20.25;;;11.55;;
74577;SDS011;63173;49.086;33.418;2023-01-01T11:51:26;23.80;;;11.75;;
74577;SDS011;63173;49.086;33.418;2023-01-01T11:54:06;21.92;;;11.10;;
74577;SDS011;63173;49.086;33.418;2023-01-01T11:56:35;27.05;;;14.23;;
74577;SDS011;63173;49.086;33.418;2023-01-01T11:59:11;35.45;;;17.65;;
74577;SDS011;63173;49.086;33.418;2023-01-01T12:04:30;22.42;;;10.82;;
74577;SDS011;63173;49.086;33.418;2023-01-01T12:07:10;20.42;;;10.80;;
74577;SDS011;63173;49.086;33.418;2023-01-01T12:09:55;20.35;;;10.70;;
74577;SDS011;63173;49.086;33.418;2023-01-01T12:12:30;19.48;;;10.45;;
74577;SDS011;63173;49.086;33.418;2023-01-01T12:17:50;20.52;;;10.93;;
74577;SDS011;63173;49.086;33.418;2023-01-01T12:20:41;17.55;;;10.50;;
74577;SDS011;63173;49.086;33.418;2023-01-01T12:23:12;19.73;;;9.98;;
74577;SDS011;63173;49.086;33.418;2023-01-01T12:25:43;18.52;;;10.32;;
74577;SDS011;63173;49.086;33.418;2023-01-01T12:33:58;21.65;;;9.95;;
74577;SDS011;63173;49.086;33.418;2023-01-01T12:39:41;16.70;;;9.82;;
74577;SDS011;63173;49.086;33.418;2023-01-01T12:42:18;26.80;;;12.30;;
74577;SDS011;63173;49.086;33.418;2023-01-01T12:45:17;20.00;;;10.32;;
74577;SDS011;63173;49.086;33.418;2023-01-01T12:48:25;18.52;;;9.70;;
74577;SDS011;63173;49.086;33.418;2023-01-01T12:56:29;18.38;;;9.82;;
74577;SDS011;63173;49.086;33.418;2023-01-01T12:59:01;18.80;;;9.57;;
74577;SDS011;63173;49.086;33.418;2023-01-01T13:01:36;15.52;;;9.23;;
74577;SDS011;63173;49.086;33.418;2023-01-01T13:04:08;16.77;;;8.95;;
74577;SDS011;63173;49.086;33.418;2023-01-01T13:09:17;22.00;;;11.73;;
74577;SDS011;63173;49.086;33.418;2023-01-01T13:11:46;17.52;;;9.23;;
74577;SDS011;63173;49.086;33.418;2023-01-01T13:14:15;23.17;;;10.52;;
74577;SDS011;63173;49.086;33.418;2023-01-01T13:16:41;18.55;;;9.45;;
74577;SDS011;63173;49.086;33.418;2023-01-01T13:19:23;18.70;;;10.23;;
74577;SDS011;63173;49.086;33.418;2023-01-01T13:21:48;15.32;;;9.18;;
74577;SDS011;63173;49.086;33.418;2023-01-01T13:24:18;15.07;;;8.15;;
74577;SDS011;63173;49.086;33.418;2023-01-01T13:26:46;17.50;;;9.55;;
74577;SDS011;63173;49.086;33.418;2023-01-01T13:54:12;15.48;;;7.50;;
74577;SDS011;63173;49.086;33.418;2023-01-01T14:02:27;16.63;;;8.52;;
74577;SDS011;63173;49.086;33.418;2023-01-01T14:04:59;19.42;;;7.75;;
74577;SDS011;63173;49.086;33.418;2023-01-01T14:15:31;13.43;;;7.15;;
74577;SDS011;63173;49.086;33.418;2023-01-01T14:17:59;16.05;;;7.25;;
74577;SDS011;63173;49.086;33.418;2023-01-01T14:23:03;16.00;;;7.80;;
74577;SDS011;63173;49.086;33.418;2023-01-01T14:25:32;15.50;;;7.60;;
74577;SDS011;63173;49.086;33.418;2023-01-01T14:27:58;17.20;;;7.47;;
74577;SDS011;63173;49.086;33.418;2023-01-01T14:30:24;14.52;;;6.95;;
74577;SDS011;63173;49.086;33.418;2023-01-01T14:32:59;11.23;;;6.10;;
74577;SDS011;63173;49.086;33.418;2023-01-01T14:35:27;12.52;;;6.60;;
74577;SDS011;63173;49.086;33.418;2023-01-01T14:37:53;11.50;;;6.20;;
74577;SDS011;63173;49.086;33.418;2023-01-01T14:40:20;12.15;;;6.35;;
74577;SDS011;63173;49.086;33.418;2023-01-01T14:43:06;10.65;;;5.97;;
74577;SDS011;63173;49.086;33.418;2023-01-01T14:45:36;11.15;;;6.32;;
74577;SDS011;63173;49.086;33.418;2023-01-01T14:48:10;11.70;;;5.53;;
74577;SDS011;63173;49.086;33.418;2023-01-01T14:50:44;12.63;;;6.57;;
74577;SDS011;63173;49.086;33.418;2023-01-01T14:53:14;12.63;;;6.43;;
74577;SDS011;63173;49.086;33.418;2023-01-01T14:55:44;10.35;;;5.93;;
74577;SDS011;63173;49.086;33.418;2023-01-01T14:58:15;14.57;;;6.63;;
74577;SDS011;63173;49.086;33.418;2023-01-01T15:00:46;11.18;;;6.18;;
74577;SDS011;63173;49.086;33.418;2023-01-01T15:03:13;11.13;;;6.53;;
74577;SDS011;63173;49.086;33.418;2023-01-01T15:05:42;13.93;;;6.45;;
74577;SDS011;63173;49.086;33.418;2023-01-01T15:08:22;12.10;;;6.70;;
74577;SDS011;63173;49.086;33.418;2023-01-01T15:10:49;12.02;;;5.93;;
74577;SDS011;63173;49.086;33.418;2023-01-01T15:13:20;14.35;;;6.55;;
74577;SDS011;63173;49.086;33.418;2023-01-01T15:15:53;12.55;;;6.28;;
74577;SDS011;63173;49.086;33.418;2023-01-01T15:18:42;11.52;;;6.38;;
74577;SDS011;63173;49.086;33.418;2023-01-01T15:23:37;12.18;;;6.07;;
74577;SDS011;63173;49.086;33.418;2023-01-01T15:26:06;13.60;;;6.82;;
74577;SDS011;63173;49.086;33.418;2023-01-01T15:28:35;12.02;;;6.25;;
74577;SDS011;63173;49.086;33.418;2023-01-01T15:31:02;13.48;;;6.18;;
74577;SDS011;63173;49.086;33.418;2023-01-01T15:33:27;13.63;;;6.43;;
74577;SDS011;63173;49.086;33.418;2023-01-01T15:35:53;12.07;;;5.93;;
74577;SDS011;63173;49.086;33.418;2023-01-01T15:38:28;12.05;;;5.65;;
74577;SDS011;63173;49.086;33.418;2023-01-01T15:40:58;11.48;;;5.90;;
74577;SDS011;63173;49.086;33.418;2023-01-01T15:43:28;11.15;;;5.70;;
74577;SDS011;63173;49.086;33.418;2023-01-01T15:45:59;13.13;;;5.63;;
74577;SDS011;63173;49.086;33.418;2023-01-01T15:48:46;9.10;;;5.65;;
74577;SDS011;63173;49.086;33.418;2023-01-01T15:53:46;12.77;;;5.55;;
74577;SDS011;63173;49.086;33.418;2023-01-01T15:56:13;11.15;;;5.25;;
74577;SDS011;63173;49.086;33.418;2023-01-01T16:02:13;12.27;;;5.55;;
74577;SDS011;63173;49.086;33.418;2023-01-01T16:04:46;10.88;;;5.03;;
74577;SDS011;63173;49.086;33.418;2023-01-01T16:07:18;10.50;;;4.97;;
74577;SDS011;63173;49.086;33.418;2023-01-01T16:09:47;11.60;;;6.00;;
74577;SDS011;63173;49.086;33.418;2023-01-01T16:12:17;9.48;;;5.68;;
74577;SDS011;63173;49.086;33.418;2023-01-01T16:14:42;13.38;;;6.50;;
74577;SDS011;63173;49.086;33.418;2023-01-01T16:17:12;11.65;;;5.40;;
74577;SDS011;63173;49.086;33.418;2023-01-01T16:19:42;10.10;;;5.40;;
74577;SDS011;63173;49.086;33.418;2023-01-01T16:22:13;13.00;;;5.00;;
74577;SDS011;63173;49.086;33.418;2023-01-01T16:24:40;12.50;;;5.43;;
74577;SDS011;63173;49.086;33.418;2023-01-01T16:27:07;11.85;;;5.28;;
74577;SDS011;63173;49.086;33.418;2023-01-01T16:29:32;19.05;;;6.07;;
74577;SDS011;63173;49.086;33.418;2023-01-01T16:31:57;15.18;;;5.82;;
74577;SDS011;63173;49.086;33.418;2023-01-01T16:34:23;10.07;;;5.20;;
74577;SDS011;63173;49.086;33.418;2023-01-01T16:36:48;10.00;;;5.45;;
74577;SDS011;63173;49.086;33.418;2023-01-01T16:39:14;10.50;;;5.22;;
74577;SDS011;63173;49.086;33.418;2023-01-01T16:41:40;9.63;;;5.70;;
74577;SDS011;63173;49.086;33.418;2023-01-01T16:44:10;9.82;;;5.55;;
74577;SDS011;63173;49.086;33.418;2023-01-01T16:46:39;9.32;;;5.03;;
74577;SDS011;63173;49.086;33.418;2023-01-01T16:49:04;10.88;;;5.63;;
74577;SDS011;63173;49.086;33.418;2023-01-01T16:51:30;10.35;;;5.63;;
74577;SDS011;63173;49.086;33.418;2023-01-01T16:53:56;16.40;;;6.13;;
74577;SDS011;63173;49.086;33.418;2023-01-01T16:56:24;10.35;;;5.45;;
74577;SDS011;63173;49.086;33.418;2023-01-01T16:58:50;10.18;;;5.40;;